Accueil
METAR-TAF:

METAR-TAF

Aéroports :

Aéroport de Bruxelles. Zaventem

Bruxelles, Belgique

latitude: 50-54N, longitude: 004-32E, altitude: 55 m

Observation

Le bulletin a été fait il y a 16 minutes, à 10:50 UTC
Vent 9 kt de est/sud-est, variant entre est et sud/sud-est
Température 23°C
Humidité 29%
Pression 1007 hPa
Visibilité 10 km ou plus
pas de nuages en-dessous de 1500 mètres et pas de cumulonimbus.

METAR: EBBR 221050Z 12009KT 090V150 CAVOK 23/04 Q1007 NOSIG

Heure: 13:06 (11:06 UTC)

Prévision

Le bulletin a été fait il y a 5 heures et 56 minutes, à 05:10 UTC
Prévision valable du 22 à 06 UTC au 23 à 12 UTC
Vent 4 kt de est/sud-est
Visibilité 10 km ou plus
pas de nuages en-dessous de 1500 mètres et pas de cumulonimbus.

TAF: EBBR 220510Z 2206/2312 12004KT CAVOK

Observations et prévisions météorologiques de plus de 4000 aéroports (messages METAR et TAF).

Les stations disponibles sont représentées par des disques jaunes et rouges sur la carte.

Passer la souris dessus pour voir le nom de la station.

Cliquer dessus pour voir les observations et prévisions météorologiques.

Pour changer de carte: cliquez sur les boutons verts avec une croix noire pour zoomer, sur le bouton vert avec un tiret pour effectuer un zoom arrière, ou sur les flèches vertes pour les cartes adjacentes.


METAR-TAF: